sensor_id;sensor_type;location;lat;lon;timestamp;temperature;humidity
40670;DHT22;26355;45.528;9.234;2022-08-19T00:02:05;24.00;99.90
40670;DHT22;26355;45.528;9.234;2022-08-19T00:04:34;24.00;99.90
40670;DHT22;26355;45.528;9.234;2022-08-19T00:07:03;23.90;99.90
40670;DHT22;26355;45.528;9.234;2022-08-19T00:09:29;23.90;99.90
40670;DHT22;26355;45.528;9.234;2022-08-19T00:11:55;23.90;99.90
40670;DHT22;26355;45.528;9.234;2022-08-19T00:14:23;23.80;99.90
40670;DHT22;26355;45.528;9.234;2022-08-19T00:16:50;23.80;99.90
40670;DHT22;26355;45.528;9.234;2022-08-19T00:19:20;23.80;99.90
40670;DHT22;26355;45.528;9.234;2022-08-19T00:21:45;23.90;99.90
40670;DHT22;26355;45.528;9.234;2022-08-19T00:24:13;23.90;99.90
40670;DHT22;26355;45.528;9.234;2022-08-19T00:26:40;23.90;99.90
40670;DHT22;26355;45.528;9.234;2022-08-19T00:29:08;23.90;99.90
40670;DHT22;26355;45.528;9.234;2022-08-19T00:31:35;23.90;99.90
40670;DHT22;26355;45.528;9.234;2022-08-19T00:34:01;23.90;99.90
40670;DHT22;26355;45.528;9.234;2022-08-19T00:36:28;23.90;99.90
40670;DHT22;26355;45.528;9.234;2022-08-19T00:38:54;23.80;99.90
40670;DHT22;26355;45.528;9.234;2022-08-19T00:41:21;23.80;99.90
40670;DHT22;26355;45.528;9.234;2022-08-19T00:44:07;23.80;99.90
40670;DHT22;26355;45.528;9.234;2022-08-19T00:46:35;23.70;99.90
40670;DHT22;26355;45.528;9.234;2022-08-19T00:49:06;23.70;99.90
40670;DHT22;26355;45.528;9.234;2022-08-19T00:51:34;23.60;99.90
40670;DHT22;26355;45.528;9.234;2022-08-19T00:54:02;23.70;99.90
40670;DHT22;26355;45.528;9.234;2022-08-19T00:56:29;23.70;99.90
40670;DHT22;26355;45.528;9.234;2022-08-19T00:58:56;23.70;99.90
40670;DHT22;26355;45.528;9.234;2022-08-19T01:01:23;23.70;99.90
40670;DHT22;26355;45.528;9.234;2022-08-19T01:03:49;23.80;99.90
40670;DHT22;26355;45.528;9.234;2022-08-19T01:06:15;23.80;99.90
40670;DHT22;26355;45.528;9.234;2022-08-19T01:08:41;23.70;99.90
40670;DHT22;26355;45.528;9.234;2022-08-19T01:11:08;23.70;99.90
40670;DHT22;26355;45.528;9.234;2022-08-19T01:13:34;23.70;99.90
40670;DHT22;26355;45.528;9.234;2022-08-19T01:16:04;23.70;99.90
40670;DHT22;26355;45.528;9.234;2022-08-19T01:18:32;23.70;99.90
40670;DHT22;26355;45.528;9.234;2022-08-19T01:21:08;23.70;99.90
40670;DHT22;26355;45.528;9.234;2022-08-19T01:23:34;23.70;99.90
40670;DHT22;26355;45.528;9.234;2022-08-19T01:26:12;23.70;99.90
40670;DHT22;26355;45.528;9.234;2022-08-19T01:28:39;23.70;99.90
40670;DHT22;26355;45.528;9.234;2022-08-19T01:31:07;23.70;99.90
40670;DHT22;26355;45.528;9.234;2022-08-19T01:33:33;23.70;99.90
40670;DHT22;26355;45.528;9.234;2022-08-19T01:36:08;23.70;99.90
40670;DHT22;26355;45.528;9.234;2022-08-19T01:38:37;23.70;99.90
40670;DHT22;26355;45.528;9.234;2022-08-19T01:41:03;23.70;99.90
40670;DHT22;26355;45.528;9.234;2022-08-19T01:43:29;23.70;99.90
40670;DHT22;26355;45.528;9.234;2022-08-19T01:45:55;23.60;99.90
40670;DHT22;26355;45.528;9.234;2022-08-19T01:48:21;23.60;99.90
40670;DHT22;26355;45.528;9.234;2022-08-19T01:50:47;23.60;99.90
40670;DHT22;26355;45.528;9.234;2022-08-19T01:53:13;23.60;99.90
40670;DHT22;26355;45.528;9.234;2022-08-19T01:55:41;23.60;99.90
40670;DHT22;26355;45.528;9.234;2022-08-19T01:58:20;23.60;99.90
40670;DHT22;26355;45.528;9.234;2022-08-19T02:00:48;23.60;99.90
40670;DHT22;26355;45.528;9.234;2022-08-19T02:03:14;23.60;99.90
40670;DHT22;26355;45.528;9.234;2022-08-19T02:05:40;23.50;99.90
40670;DHT22;26355;45.528;9.234;2022-08-19T02:08:07;23.50;99.90
40670;DHT22;26355;45.528;9.234;2022-08-19T02:10:33;23.60;99.90
40670;DHT22;26355;45.528;9.234;2022-08-19T02:12:58;23.60;99.90
40670;DHT22;26355;45.528;9.234;2022-08-19T02:15:24;23.60;99.90
40670;DHT22;26355;45.528;9.234;2022-08-19T02:17:51;23.60;99.90
40670;DHT22;26355;45.528;9.234;2022-08-19T02:20:17;23.60;99.90
40670;DHT22;26355;45.528;9.234;2022-08-19T02:22:43;23.60;99.90
40670;DHT22;26355;45.528;9.234;2022-08-19T02:25:13;23.70;99.90
40670;DHT22;26355;45.528;9.234;2022-08-19T02:27:40;23.60;99.90
40670;DHT22;26355;45.528;9.234;2022-08-19T02:30:08;23.60;99.90
40670;DHT22;26355;45.528;9.234;2022-08-19T02:32:36;23.60;99.90
40670;DHT22;26355;45.528;9.234;2022-08-19T02:35:04;23.60;99.90
40670;DHT22;26355;45.528;9.234;2022-08-19T02:37:33;23.50;99.90
40670;DHT22;26355;45.528;9.234;2022-08-19T02:40:17;23.60;99.90
40670;DHT22;26355;45.528;9.234;2022-08-19T02:42:43;23.50;99.90
40670;DHT22;26355;45.528;9.234;2022-08-19T02:45:14;23.50;99.90
40670;DHT22;26355;45.528;9.234;2022-08-19T02:47:40;23.50;99.90
40670;DHT22;26355;45.528;9.234;2022-08-19T02:50:11;23.50;99.90
40670;DHT22;26355;45.528;9.234;2022-08-19T02:52:40;23.50;99.90
40670;DHT22;26355;45.528;9.234;2022-08-19T02:55:08;23.50;99.90
40670;DHT22;26355;45.528;9.234;2022-08-19T02:57:39;23.40;99.90
40670;DHT22;26355;45.528;9.234;2022-08-19T03:00:06;23.40;99.90
40670;DHT22;26355;45.528;9.234;2022-08-19T03:02:33;23.40;99.90
40670;DHT22;26355;45.528;9.234;2022-08-19T03:04:59;23.40;99.90
40670;DHT22;26355;45.528;9.234;2022-08-19T03:07:24;23.40;99.90
40670;DHT22;26355;45.528;9.234;2022-08-19T03:09:50;23.40;99.90
40670;DHT22;26355;45.528;9.234;2022-08-19T03:12:16;23.40;99.90
40670;DHT22;26355;45.528;9.234;2022-08-19T03:14:41;23.40;99.90
40670;DHT22;26355;45.528;9.234;2022-08-19T03:17:07;23.40;99.90
40670;DHT22;26355;45.528;9.234;2022-08-19T03:19:33;23.40;99.90
40670;DHT22;26355;45.528;9.234;2022-08-19T03:21:59;23.40;99.90
40670;DHT22;26355;45.528;9.234;2022-08-19T03:24:25;23.30;99.90
40670;DHT22;26355;45.528;9.234;2022-08-19T03:26:53;23.30;99.90
40670;DHT22;26355;45.528;9.234;2022-08-19T03:29:23;23.20;99.90
40670;DHT22;26355;45.528;9.234;2022-08-19T03:31:49;23.10;99.90
40670;DHT22;26355;45.528;9.234;2022-08-19T03:34:28;23.20;99.90
40670;DHT22;26355;45.528;9.234;2022-08-19T03:36:59;23.20;99.90
40670;DHT22;26355;45.528;9.234;2022-08-19T03:39:26;23.30;99.90
40670;DHT22;26355;45.528;9.234;2022-08-19T03:41:53;23.30;99.90
40670;DHT22;26355;45.528;9.234;2022-08-19T03:44:22;23.30;99.90
40670;DHT22;26355;45.528;9.234;2022-08-19T03:46:50;23.30;99.90
40670;DHT22;26355;45.528;9.234;2022-08-19T03:49:17;23.10;99.90
40670;DHT22;26355;45.528;9.234;2022-08-19T03:51:44;23.10;99.90
40670;DHT22;26355;45.528;9.234;2022-08-19T03:54:12;23.10;99.90
40670;DHT22;26355;45.528;9.234;2022-08-19T03:56:39;23.10;99.90
40670;DHT22;26355;45.528;9.234;2022-08-19T03:59:08;23.00;99.90
40670;DHT22;26355;45.528;9.234;2022-08-19T04:01:35;23.00;99.90
40670;DHT22;26355;45.528;9.234;2022-08-19T04:04:01;22.90;99.90
40670;DHT22;26355;45.528;9.234;2022-08-19T04:06:31;23.00;99.90
40670;DHT22;26355;45.528;9.234;2022-08-19T04:08:59;23.00;99.90
40670;DHT22;26355;45.528;9.234;2022-08-19T04:11:28;23.10;99.90
40670;DHT22;26355;45.528;9.234;2022-08-19T04:13:55;23.10;99.90
40670;DHT22;26355;45.528;9.234;2022-08-19T04:16:23;23.10;99.90
40670;DHT22;26355;45.528;9.234;2022-08-19T04:18:49;23.10;99.90
40670;DHT22;26355;45.528;9.234;2022-08-19T04:21:21;23.10;99.90
40670;DHT22;26355;45.528;9.234;2022-08-19T04:23:48;23.00;99.90
40670;DHT22;26355;45.528;9.234;2022-08-19T04:26:37;23.00;99.90
40670;DHT22;26355;45.528;9.234;2022-08-19T04:29:11;23.00;99.90
40670;DHT22;26355;45.528;9.234;2022-08-19T04:31:37;23.10;99.90
40670;DHT22;26355;45.528;9.234;2022-08-19T04:34:05;23.10;99.90
40670;DHT22;26355;45.528;9.234;2022-08-19T04:36:34;23.10;99.90
40670;DHT22;26355;45.528;9.234;2022-08-19T04:39:04;23.10;99.90
40670;DHT22;26355;45.528;9.234;2022-08-19T04:41:30;23.10;99.90
40670;DHT22;26355;45.528;9.234;2022-08-19T04:44:14;23.10;99.90
40670;DHT22;26355;45.528;9.234;2022-08-19T04:46:44;23.20;99.90
40670;DHT22;26355;45.528;9.234;2022-08-19T04:49:09;23.20;99.90
40670;DHT22;26355;45.528;9.234;2022-08-19T04:51:39;23.20;99.90
40670;DHT22;26355;45.528;9.234;2022-08-19T04:54:05;23.10;99.90
40670;DHT22;26355;45.528;9.234;2022-08-19T04:56:30;23.10;99.90
40670;DHT22;26355;45.528;9.234;2022-08-19T04:58:57;23.20;99.90
40670;DHT22;26355;45.528;9.234;2022-08-19T05:01:26;23.10;99.90
40670;DHT22;26355;45.528;9.234;2022-08-19T05:03:54;23.10;99.90
40670;DHT22;26355;45.528;9.234;2022-08-19T05:06:21;23.10;99.90
40670;DHT22;26355;45.528;9.234;2022-08-19T05:08:48;23.10;99.90
40670;DHT22;26355;45.528;9.234;2022-08-19T05:11:17;23.10;99.90
40670;DHT22;26355;45.528;9.234;2022-08-19T05:13:44;23.00;99.90
40670;DHT22;26355;45.528;9.234;2022-08-19T05:16:12;23.10;99.90
40670;DHT22;26355;45.528;9.234;2022-08-19T05:18:39;22.90;99.90
40670;DHT22;26355;45.528;9.234;2022-08-19T05:21:25;22.90;99.90
40670;DHT22;26355;45.528;9.234;2022-08-19T05:24:09;22.80;99.90
40670;DHT22;26355;45.528;9.234;2022-08-19T05:26:39;22.80;99.90
40670;DHT22;26355;45.528;9.234;2022-08-19T05:29:06;22.70;99.90
40670;DHT22;26355;45.528;9.234;2022-08-19T05:31:33;22.70;99.90
40670;DHT22;26355;45.528;9.234;2022-08-19T05:34:01;22.70;99.90
40670;DHT22;26355;45.528;9.234;2022-08-19T05:36:28;22.70;99.90
40670;DHT22;26355;45.528;9.234;2022-08-19T05:38:54;22.70;99.90
40670;DHT22;26355;45.528;9.234;2022-08-19T05:41:21;22.60;99.90
40670;DHT22;26355;45.528;9.234;2022-08-19T05:43:55;22.60;99.90
40670;DHT22;26355;45.528;9.234;2022-08-19T05:46:21;22.60;99.90
40670;DHT22;26355;45.528;9.234;2022-08-19T05:48:47;22.50;99.90
40670;DHT22;26355;45.528;9.234;2022-08-19T05:51:14;22.30;99.90
40670;DHT22;26355;45.528;9.234;2022-08-19T05:53:40;22.20;99.90
40670;DHT22;26355;45.528;9.234;2022-08-19T05:56:07;22.20;99.90
40670;DHT22;26355;45.528;9.234;2022-08-19T05:58:35;22.20;99.90
40670;DHT22;26355;45.528;9.234;2022-08-19T06:01:01;22.20;99.90
40670;DHT22;26355;45.528;9.234;2022-08-19T06:03:31;22.20;99.90
40670;DHT22;26355;45.528;9.234;2022-08-19T06:05:57;22.30;99.90
40670;DHT22;26355;45.528;9.234;2022-08-19T06:08:25;22.30;99.90
40670;DHT22;26355;45.528;9.234;2022-08-19T06:10:50;22.30;99.90
40670;DHT22;26355;45.528;9.234;2022-08-19T06:13:16;22.40;99.90
40670;DHT22;26355;45.528;9.234;2022-08-19T06:15:43;22.30;99.90
40670;DHT22;26355;45.528;9.234;2022-08-19T06:18:09;22.30;99.90
40670;DHT22;26355;45.528;9.234;2022-08-19T06:20:35;22.40;99.90
40670;DHT22;26355;45.528;9.234;2022-08-19T06:23:01;22.40;99.90
40670;DHT22;26355;45.528;9.234;2022-08-19T06:25:26;22.40;99.90
40670;DHT22;26355;45.528;9.234;2022-08-19T06:27:52;22.40;99.90
40670;DHT22;26355;45.528;9.234;2022-08-19T06:30:18;22.40;99.90
40670;DHT22;26355;45.528;9.234;2022-08-19T06:32:44;22.40;99.90
40670;DHT22;26355;45.528;9.234;2022-08-19T06:35:10;22.40;99.90
40670;DHT22;26355;45.528;9.234;2022-08-19T06:37:37;22.50;99.90
40670;DHT22;26355;45.528;9.234;2022-08-19T06:40:03;22.50;99.90
40670;DHT22;26355;45.528;9.234;2022-08-19T06:42:29;22.50;99.90
40670;DHT22;26355;45.528;9.234;2022-08-19T06:44:55;22.50;99.90
40670;DHT22;26355;45.528;9.234;2022-08-19T06:47:23;22.60;99.90
40670;DHT22;26355;45.528;9.234;2022-08-19T06:49:49;22.70;99.90
40670;DHT22;26355;45.528;9.234;2022-08-19T06:52:14;22.80;99.90
40670;DHT22;26355;45.528;9.234;2022-08-19T06:54:41;22.80;99.90
40670;DHT22;26355;45.528;9.234;2022-08-19T06:57:08;22.90;99.90
40670;DHT22;26355;45.528;9.234;2022-08-19T06:59:38;23.00;99.90
40670;DHT22;26355;45.528;9.234;2022-08-19T07:02:05;23.00;99.90
40670;DHT22;26355;45.528;9.234;2022-08-19T07:04:33;23.10;99.90
40670;DHT22;26355;45.528;9.234;2022-08-19T07:07:02;23.10;99.90
40670;DHT22;26355;45.528;9.234;2022-08-19T07:09:28;23.20;99.90
40670;DHT22;26355;45.528;9.234;2022-08-19T07:11:55;23.30;99.90
40670;DHT22;26355;45.528;9.234;2022-08-19T07:14:26;23.30;99.90
40670;DHT22;26355;45.528;9.234;2022-08-19T07:16:54;23.30;99.90
40670;DHT22;26355;45.528;9.234;2022-08-19T07:19:21;23.40;99.90
40670;DHT22;26355;45.528;9.234;2022-08-19T07:21:49;23.40;99.90
40670;DHT22;26355;45.528;9.234;2022-08-19T07:24:19;23.40;99.90
40670;DHT22;26355;45.528;9.234;2022-08-19T07:26:45;23.40;99.90
40670;DHT22;26355;45.528;9.234;2022-08-19T07:29:11;23.50;99.90
40670;DHT22;26355;45.528;9.234;2022-08-19T07:31:37;23.50;99.90
40670;DHT22;26355;45.528;9.234;2022-08-19T07:34:05;23.50;99.90
40670;DHT22;26355;45.528;9.234;2022-08-19T07:36:36;23.50;99.90
40670;DHT22;26355;45.528;9.234;2022-08-19T07:39:08;23.50;99.90
40670;DHT22;26355;45.528;9.234;2022-08-19T07:41:35;23.40;99.90
40670;DHT22;26355;45.528;9.234;2022-08-19T07:44:04;23.40;99.90
40670;DHT22;26355;45.528;9.234;2022-08-19T07:46:31;23.40;99.90
40670;DHT22;26355;45.528;9.234;2022-08-19T07:48:57;23.40;99.90
40670;DHT22;26355;45.528;9.234;2022-08-19T07:51:23;23.50;99.90
40670;DHT22;26355;45.528;9.234;2022-08-19T07:53:49;23.50;99.90
40670;DHT22;26355;45.528;9.234;2022-08-19T07:56:17;23.50;99.90
40670;DHT22;26355;45.528;9.234;2022-08-19T07:58:45;23.50;99.90
40670;DHT22;26355;45.528;9.234;2022-08-19T08:01:14;23.50;99.90
40670;DHT22;26355;45.528;9.234;2022-08-19T08:03:41;23.50;99.90
40670;DHT22;26355;45.528;9.234;2022-08-19T08:06:25;23.50;99.90
40670;DHT22;26355;45.528;9.234;2022-08-19T08:09:11;23.60;99.90
40670;DHT22;26355;45.528;9.234;2022-08-19T08:11:58;23.60;99.90
40670;DHT22;26355;45.528;9.234;2022-08-19T08:14:35;23.70;99.90
40670;DHT22;26355;45.528;9.234;2022-08-19T08:17:03;23.80;99.90
40670;DHT22;26355;45.528;9.234;2022-08-19T08:19:29;23.80;99.90
40670;DHT22;26355;45.528;9.234;2022-08-19T08:21:57;23.80;99.90
40670;DHT22;26355;45.528;9.234;2022-08-19T08:24:24;23.90;99.90
40670;DHT22;26355;45.528;9.234;2022-08-19T08:26:50;23.90;99.90
40670;DHT22;26355;45.528;9.234;2022-08-19T08:29:16;23.90;99.90
40670;DHT22;26355;45.528;9.234;2022-08-19T08:31:43;23.90;99.90
40670;DHT22;26355;45.528;9.234;2022-08-19T08:34:10;23.90;99.90
40670;DHT22;26355;45.528;9.234;2022-08-19T08:36:41;24.00;99.90
40670;DHT22;26355;45.528;9.234;2022-08-19T08:39:13;24.00;99.90
40670;DHT22;26355;45.528;9.234;2022-08-19T08:47:04;24.10;99.90
40670;DHT22;26355;45.528;9.234;2022-08-19T08:52:15;24.30;99.90
40670;DHT22;26355;45.528;9.234;2022-08-19T08:54:46;24.20;99.90
40670;DHT22;26355;45.528;9.234;2022-08-19T08:57:29;24.20;99.90
40670;DHT22;26355;45.528;9.234;2022-08-19T08:59:57;24.30;99.90
40670;DHT22;26355;45.528;9.234;2022-08-19T09:02:25;24.30;99.90
40670;DHT22;26355;45.528;9.234;2022-08-19T09:04:51;24.20;99.90
40670;DHT22;26355;45.528;9.234;2022-08-19T09:15:29;24.30;99.90
40670;DHT22;26355;45.528;9.234;2022-08-19T09:18:00;24.30;99.90
40670;DHT22;26355;45.528;9.234;2022-08-19T09:20:27;24.30;99.90
40670;DHT22;26355;45.528;9.234;2022-08-19T09:22:53;24.30;99.90
40670;DHT22;26355;45.528;9.234;2022-08-19T09:25:21;24.40;99.90
40670;DHT22;26355;45.528;9.234;2022-08-19T09:27:49;24.40;99.90
40670;DHT22;26355;45.528;9.234;2022-08-19T09:30:20;24.50;99.90
40670;DHT22;26355;45.528;9.234;2022-08-19T09:32:47;24.40;99.90
40670;DHT22;26355;45.528;9.234;2022-08-19T09:35:14;24.30;99.90
40670;DHT22;26355;45.528;9.234;2022-08-19T09:37:40;24.40;99.90
40670;DHT22;26355;45.528;9.234;2022-08-19T09:40:07;24.40;99.90
40670;DHT22;26355;45.528;9.234;2022-08-19T09:42:33;24.50;99.90
40670;DHT22;26355;45.528;9.234;2022-08-19T09:44:59;24.50;99.90
40670;DHT22;26355;45.528;9.234;2022-08-19T09:47:25;24.50;99.90
40670;DHT22;26355;45.528;9.234;2022-08-19T09:49:51;24.50;99.90
40670;DHT22;26355;45.528;9.234;2022-08-19T09:52:16;24.60;99.90
40670;DHT22;26355;45.528;9.234;2022-08-19T09:54:44;24.60;99.90
40670;DHT22;26355;45.528;9.234;2022-08-19T09:57:09;24.70;99.90
40670;DHT22;26355;45.528;9.234;2022-08-19T09:59:35;24.80;99.90
40670;DHT22;26355;45.528;9.234;2022-08-19T10:02:02;24.90;99.90
40670;DHT22;26355;45.528;9.234;2022-08-19T10:04:28;25.00;99.90
40670;DHT22;26355;45.528;9.234;2022-08-19T10:07:14;25.20;99.90
40670;DHT22;26355;45.528;9.234;2022-08-19T10:09:39;25.20;99.90
40670;DHT22;26355;45.528;9.234;2022-08-19T10:12:07;25.20;99.90
40670;DHT22;26355;45.528;9.234;2022-08-19T10:14:33;25.40;99.90
40670;DHT22;26355;45.528;9.234;2022-08-19T10:16:59;25.50;99.90
40670;DHT22;26355;45.528;9.234;2022-08-19T10:19:28;25.40;99.90
40670;DHT22;26355;45.528;9.234;2022-08-19T10:21:57;25.60;99.90
40670;DHT22;26355;45.528;9.234;2022-08-19T10:24:23;25.60;99.90
40670;DHT22;26355;45.528;9.234;2022-08-19T10:26:49;25.70;99.90
40670;DHT22;26355;45.528;9.234;2022-08-19T10:29:15;25.70;99.90
40670;DHT22;26355;45.528;9.234;2022-08-19T10:31:42;25.70;99.90
40670;DHT22;26355;45.528;9.234;2022-08-19T10:34:08;25.80;99.90
40670;DHT22;26355;45.528;9.234;2022-08-19T10:36:36;25.80;99.90
40670;DHT22;26355;45.528;9.234;2022-08-19T10:39:07;25.80;99.90
40670;DHT22;26355;45.528;9.234;2022-08-19T10:41:35;25.80;99.90
40670;DHT22;26355;45.528;9.234;2022-08-19T10:44:05;25.80;99.90
40670;DHT22;26355;45.528;9.234;2022-08-19T10:46:32;25.90;99.90
40670;DHT22;26355;45.528;9.234;2022-08-19T10:49:04;26.00;99.90
40670;DHT22;26355;45.528;9.234;2022-08-19T10:51:30;26.10;99.90
40670;DHT22;26355;45.528;9.234;2022-08-19T10:54:14;26.20;99.90
40670;DHT22;26355;45.528;9.234;2022-08-19T10:56:40;26.10;99.90
40670;DHT22;26355;45.528;9.234;2022-08-19T10:59:23;26.30;99.90
40670;DHT22;26355;45.528;9.234;2022-08-19T11:01:50;26.40;99.90
40670;DHT22;26355;45.528;9.234;2022-08-19T11:04:17;26.50;99.90
40670;DHT22;26355;45.528;9.234;2022-08-19T11:06:46;26.50;99.90
40670;DHT22;26355;45.528;9.234;2022-08-19T11:09:14;26.70;99.90
40670;DHT22;26355;45.528;9.234;2022-08-19T11:11:41;26.90;99.90
40670;DHT22;26355;45.528;9.234;2022-08-19T11:14:12;26.90;99.90
40670;DHT22;26355;45.528;9.234;2022-08-19T11:16:40;26.90;99.90
40670;DHT22;26355;45.528;9.234;2022-08-19T11:19:07;26.90;99.90
40670;DHT22;26355;45.528;9.234;2022-08-19T11:21:41;27.00;99.90
40670;DHT22;26355;45.528;9.234;2022-08-19T11:24:16;27.00;99.90
40670;DHT22;26355;45.528;9.234;2022-08-19T11:26:43;27.00;99.90
40670;DHT22;26355;45.528;9.234;2022-08-19T11:29:11;27.10;99.90
40670;DHT22;26355;45.528;9.234;2022-08-19T11:31:39;27.20;99.90
40670;DHT22;26355;45.528;9.234;2022-08-19T11:34:07;27.20;99.90
40670;DHT22;26355;45.528;9.234;2022-08-19T11:36:33;27.10;99.90
40670;DHT22;26355;45.528;9.234;2022-08-19T11:39:01;27.10;99.90
40670;DHT22;26355;45.528;9.234;2022-08-19T11:41:27;27.10;99.90
40670;DHT22;26355;45.528;9.234;2022-08-19T11:43:54;27.20;99.90
40670;DHT22;26355;45.528;9.234;2022-08-19T11:46:22;27.20;99.90
40670;DHT22;26355;45.528;9.234;2022-08-19T11:48:48;27.20;99.90
40670;DHT22;26355;45.528;9.234;2022-08-19T11:51:19;27.10;99.90
40670;DHT22;26355;45.528;9.234;2022-08-19T11:53:46;27.00;99.90
40670;DHT22;26355;45.528;9.234;2022-08-19T11:56:12;27.00;99.90
40670;DHT22;26355;45.528;9.234;2022-08-19T11:58:40;27.00;99.90
40670;DHT22;26355;45.528;9.234;2022-08-19T12:01:10;27.10;99.90
40670;DHT22;26355;45.528;9.234;2022-08-19T12:03:41;27.00;99.90
40670;DHT22;26355;45.528;9.234;2022-08-19T12:06:10;26.80;99.90
40670;DHT22;26355;45.528;9.234;2022-08-19T12:08:38;26.80;99.90
40670;DHT22;26355;45.528;9.234;2022-08-19T12:11:04;26.80;99.90
40670;DHT22;26355;45.528;9.234;2022-08-19T12:13:33;26.90;99.90
40670;DHT22;26355;45.528;9.234;2022-08-19T12:15:59;27.00;99.90
40670;DHT22;26355;45.528;9.234;2022-08-19T12:18:25;27.00;99.90
40670;DHT22;26355;45.528;9.234;2022-08-19T12:20:52;27.10;99.90
40670;DHT22;26355;45.528;9.234;2022-08-19T12:23:18;27.20;99.90
40670;DHT22;26355;45.528;9.234;2022-08-19T12:25:46;27.30;99.90
40670;DHT22;26355;45.528;9.234;2022-08-19T12:28:16;27.30;99.90
40670;DHT22;26355;45.528;9.234;2022-08-19T12:30:42;27.30;99.90
40670;DHT22;26355;45.528;9.234;2022-08-19T12:33:08;27.40;99.90
40670;DHT22;26355;45.528;9.234;2022-08-19T12:35:33;27.60;99.90
40670;DHT22;26355;45.528;9.234;2022-08-19T12:37:59;27.60;99.90
40670;DHT22;26355;45.528;9.234;2022-08-19T12:40:26;27.70;99.90
40670;DHT22;26355;45.528;9.234;2022-08-19T12:42:53;27.80;99.90
40670;DHT22;26355;45.528;9.234;2022-08-19T12:45:19;28.00;99.90
40670;DHT22;26355;45.528;9.234;2022-08-19T12:47:44;28.10;99.90
40670;DHT22;26355;45.528;9.234;2022-08-19T12:50:11;28.10;99.90
40670;DHT22;26355;45.528;9.234;2022-08-19T12:52:38;28.10;99.90
40670;DHT22;26355;45.528;9.234;2022-08-19T12:55:05;28.20;99.90
40670;DHT22;26355;45.528;9.234;2022-08-19T12:57:32;28.30;99.90
40670;DHT22;26355;45.528;9.234;2022-08-19T13:00:22;28.20;99.90
40670;DHT22;26355;45.528;9.234;2022-08-19T13:02:50;28.00;99.90
40670;DHT22;26355;45.528;9.234;2022-08-19T13:05:19;28.20;99.90
40670;DHT22;26355;45.528;9.234;2022-08-19T13:07:47;28.00;99.90
40670;DHT22;26355;45.528;9.234;2022-08-19T13:10:18;28.10;99.90
40670;DHT22;26355;45.528;9.234;2022-08-19T13:12:47;28.10;99.90
40670;DHT22;26355;45.528;9.234;2022-08-19T13:15:14;28.10;99.90
40670;DHT22;26355;45.528;9.234;2022-08-19T13:17:41;28.20;99.90
40670;DHT22;26355;45.528;9.234;2022-08-19T13:20:10;28.20;99.90
40670;DHT22;26355;45.528;9.234;2022-08-19T13:22:37;28.20;99.90
40670;DHT22;26355;45.528;9.234;2022-08-19T13:25:03;28.20;99.90
40670;DHT22;26355;45.528;9.234;2022-08-19T13:27:31;28.30;99.90
40670;DHT22;26355;45.528;9.234;2022-08-19T13:29:56;28.20;99.90
40670;DHT22;26355;45.528;9.234;2022-08-19T13:32:41;28.30;99.90
40670;DHT22;26355;45.528;9.234;2022-08-19T13:35:25;28.30;99.90
40670;DHT22;26355;45.528;9.234;2022-08-19T13:37:50;28.40;99.90
40670;DHT22;26355;45.528;9.234;2022-08-19T13:40:23;28.40;99.90
40670;DHT22;26355;45.528;9.234;2022-08-19T13:42:51;28.40;99.90
40670;DHT22;26355;45.528;9.234;2022-08-19T13:45:19;28.30;99.90
40670;DHT22;26355;45.528;9.234;2022-08-19T13:47:49;28.30;99.90
40670;DHT22;26355;45.528;9.234;2022-08-19T13:50:19;28.40;99.90
40670;DHT22;26355;45.528;9.234;2022-08-19T13:52:45;28.40;99.90
40670;DHT22;26355;45.528;9.234;2022-08-19T13:55:13;28.50;99.90
40670;DHT22;26355;45.528;9.234;2022-08-19T13:57:40;28.50;99.90
40670;DHT22;26355;45.528;9.234;2022-08-19T14:00:14;28.50;99.90
40670;DHT22;26355;45.528;9.234;2022-08-19T14:02:40;28.50;99.90
40670;DHT22;26355;45.528;9.234;2022-08-19T14:05:09;28.50;99.90
40670;DHT22;26355;45.528;9.234;2022-08-19T14:07:35;28.60;99.90
40670;DHT22;26355;45.528;9.234;2022-08-19T14:10:03;28.70;99.90
40670;DHT22;26355;45.528;9.234;2022-08-19T14:12:28;28.80;99.50
40670;DHT22;26355;45.528;9.234;2022-08-19T14:14:54;28.90;99.40
40670;DHT22;26355;45.528;9.234;2022-08-19T14:17:20;29.00;96.80
40670;DHT22;26355;45.528;9.234;2022-08-19T14:19:46;29.00;97.00
40670;DHT22;26355;45.528;9.234;2022-08-19T14:22:12;29.00;97.30
40670;DHT22;26355;45.528;9.234;2022-08-19T14:24:38;28.90;96.50
40670;DHT22;26355;45.528;9.234;2022-08-19T14:27:06;29.00;96.50
40670;DHT22;26355;45.528;9.234;2022-08-19T14:29:33;29.00;96.70
40670;DHT22;26355;45.528;9.234;2022-08-19T14:31:59;29.10;96.50
40670;DHT22;26355;45.528;9.234;2022-08-19T14:34:25;29.00;94.80
40670;DHT22;26355;45.528;9.234;2022-08-19T14:36:52;28.90;95.10
40670;DHT22;26355;45.528;9.234;2022-08-19T14:39:17;28.80;94.60
40670;DHT22;26355;45.528;9.234;2022-08-19T14:41:43;28.70;94.70
40670;DHT22;26355;45.528;9.234;2022-08-19T14:44:10;28.70;95.00
40670;DHT22;26355;45.528;9.234;2022-08-19T14:46:39;28.70;95.00
40670;DHT22;26355;45.528;9.234;2022-08-19T14:49:06;28.80;95.00
40670;DHT22;26355;45.528;9.234;2022-08-19T14:51:32;28.80;95.00
40670;DHT22;26355;45.528;9.234;2022-08-19T14:53:58;28.80;94.70
40670;DHT22;26355;45.528;9.234;2022-08-19T14:56:26;28.80;94.50
40670;DHT22;26355;45.528;9.234;2022-08-19T14:58:53;28.80;94.70
40670;DHT22;26355;45.528;9.234;2022-08-19T15:01:21;28.80;94.70
40670;DHT22;26355;45.528;9.234;2022-08-19T15:03:48;28.70;94.30
40670;DHT22;26355;45.528;9.234;2022-08-19T15:06:14;28.70;94.40
40670;DHT22;26355;45.528;9.234;2022-08-19T15:08:41;28.70;94.50
40670;DHT22;26355;45.528;9.234;2022-08-19T15:11:10;28.70;94.60
40670;DHT22;26355;45.528;9.234;2022-08-19T15:13:37;28.70;94.60
40670;DHT22;26355;45.528;9.234;2022-08-19T15:16:03;28.70;94.70
40670;DHT22;26355;45.528;9.234;2022-08-19T15:18:29;28.70;94.50
40670;DHT22;26355;45.528;9.234;2022-08-19T15:20:55;28.70;94.40
40670;DHT22;26355;45.528;9.234;2022-08-19T15:23:22;28.70;94.10
40670;DHT22;26355;45.528;9.234;2022-08-19T15:25:48;28.60;93.90
40670;DHT22;26355;45.528;9.234;2022-08-19T15:28:17;28.60;93.90
40670;DHT22;26355;45.528;9.234;2022-08-19T15:30:43;28.60;93.90
40670;DHT22;26355;45.528;9.234;2022-08-19T15:33:10;28.50;93.70
40670;DHT22;26355;45.528;9.234;2022-08-19T15:35:40;28.50;93.90
40670;DHT22;26355;45.528;9.234;2022-08-19T15:38:06;28.50;94.10
40670;DHT22;26355;45.528;9.234;2022-08-19T15:40:33;28.50;94.10
40670;DHT22;26355;45.528;9.234;2022-08-19T15:42:59;28.50;94.10
40670;DHT22;26355;45.528;9.234;2022-08-19T15:45:25;28.60;94.10
40670;DHT22;26355;45.528;9.234;2022-08-19T15:48:01;28.60;94.20
40670;DHT22;26355;45.528;9.234;2022-08-19T15:50:28;28.60;94.00
40670;DHT22;26355;45.528;9.234;2022-08-19T15:52:59;28.70;94.20